Cambridge, Ohio
Current Conditions -  °F | °C
As of 10:53 PM on Thursday 27 Nov 2014 (Local Time) from KZZV Reporting Station
Overcast Overcast  
Wind Chill: 22°   Ceiling: 4100
Heat Index: 29°   Visibility: 10mi
Dew Point: 21°   Wind: 7mph
Humidity: 72%   Direction: 280°W
Pressure: 30.3"   Gusts: NA
Location:  40.02°N, 81.59°W
Report Text: KZZV 280353Z AUTO 28006KT 10SM FEW028 BKN041 OVC055 M02/M06 A3030 RMK AO2 SLP268 T10171061
Loading
Personal Weather Stations






























Interactive Weather Map New forecast layout! Learn more

10-Day Weather Forecast

Advertisements
Track Severe Weather on mobile